Time;durP1;ratioP1;P1;durP2;ratioP2;P2;SDS_P1;SDS_P2;PMS_P1;PMS_P2;Temp;Humidity;BMP_temperature;BMP_pressure;BME280_temperature;BME280_humidity;BME280_pressure;Samples;Min_cycle;Max_cycle;Signal;HPM_P1;HPM_P2
2023/06/25 00:01:37;;;;;;;14.30;7.13;;;;;;;17.71;100.00;100442.65;1495509;87;22491;-79
2023/06/25 00:04:03;;;;;;;9.70;6.67;;;;;;;17.71;100.00;100440.80;1468704;88;21367;-78
2023/06/25 00:06:30;;;;;;;10.77;6.70;;;;;;;17.70;100.00;100447.70;1467009;88;21575;-79
2023/06/25 00:08:56;;;;;;;15.00;6.67;;;;;;;17.71;100.00;100442.12;1476889;88;21836;-79
2023/06/25 00:11:22;;;;;;;11.73;6.50;;;;;;;17.69;100.00;100448.18;1466128;88;21353;-79
2023/06/25 00:13:48;;;;;;;12.37;7.13;;;;;;;17.68;100.00;100451.06;1467121;88;21569;-79
2023/06/25 00:16:14;;;;;;;11.10;6.70;;;;;;;17.68;100.00;100455.08;1475671;88;21508;-79
2023/06/25 00:18:40;;;;;;;11.00;6.13;;;;;;;17.69;100.00;100454.05;1504275;87;21382;-79
2023/06/25 00:21:06;;;;;;;15.00;7.30;;;;;;;17.65;100.00;100456.80;1455051;88;21707;-79
2023/06/25 00:23:33;;;;;;;7.27;6.07;;;;;;;17.68;100.00;100464.45;1493194;86;21515;-78
2023/06/25 00:26:00;;;;;;;8.10;6.10;;;;;;;17.65;100.00;100462.98;1462903;88;22432;-79
2023/06/25 00:28:26;;;;;;;8.07;6.43;;;;;;;17.63;100.00;100459.66;1478735;88;22270;-79
2023/06/25 00:30:52;;;;;;;8.53;6.30;;;;;;;17.56;100.00;100463.63;1475526;88;21989;-79
2023/06/25 00:33:21;;;;;;;9.43;5.87;;;;;;;17.55;100.00;100457.97;1448355;90;21400;-80
2023/06/25 00:35:56;;;;;;;7.57;5.67;;;;;;;17.52;100.00;100461.03;1473456;88;22159;-79
2023/06/25 00:38:22;;;;;;;8.70;5.53;;;;;;;17.51;100.00;100466.05;1472377;88;21717;-79
2023/06/25 00:40:50;;;;;;;11.93;6.50;;;;;;;17.50;100.00;100468.41;1470563;88;21434;-79
2023/06/25 00:43:16;;;;;;;10.03;5.10;;;;;;;17.51;100.00;100472.73;1479750;88;22225;-79
2023/06/25 00:45:44;;;;;;;10.23;5.47;;;;;;;17.56;100.00;100472.99;1476663;88;21412;-79
2023/06/25 00:48:11;;;;;;;7.33;5.40;;;;;;;17.57;100.00;100467.13;1475390;88;22247;-79
2023/06/25 00:50:37;;;;;;;11.60;6.27;;;;;;;17.58;100.00;100466.95;1472259;87;21331;-80
2023/06/25 00:53:06;;;;;;;12.13;6.17;;;;;;;17.56;100.00;100467.64;1463341;88;21404;-80
2023/06/25 00:55:31;;;;;;;9.20;5.70;;;;;;;17.54;100.00;100469.67;1469344;87;21420;-79
2023/06/25 00:58:00;;;;;;;9.03;5.90;;;;;;;17.56;100.00;100472.99;1473808;88;21471;-80
2023/06/25 01:00:29;;;;;;;11.50;5.77;;;;;;;17.55;100.00;100479.86;1442259;88;21456;-80
2023/06/25 01:03:36;;;;;;;11.37;6.37;;;;;;;17.55;100.00;100471.34;1477927;88;21426;-80
2023/06/25 01:06:29;;;;;;;9.37;6.17;;;;;;;17.53;100.00;100464.02;1471058;88;21533;-79
2023/06/25 01:08:53;;;;;;;7.93;5.67;;;;;;;17.54;100.00;100464.32;1473185;87;22108;-79
2023/06/25 01:11:20;;;;;;;10.33;6.10;;;;;;;17.54;100.00;100464.32;1473987;87;21522;-79
2023/06/25 01:13:46;;;;;;;14.10;6.07;;;;;;;17.54;100.00;100462.16;1470567;87;21329;-79
2023/06/25 01:16:14;;;;;;;10.13;5.47;;;;;;;17.54;100.00;100464.32;1397888;87;21212;-80
2023/06/25 01:18:42;;;;;;;7.97;5.53;;;;;;;17.53;100.00;100463.19;1397501;87;21235;-79
2023/06/25 01:21:11;;;;;;;8.77;5.23;;;;;;;17.51;100.00;100455.86;1541585;88;22072;-80
2023/06/25 01:23:39;;;;;;;14.73;6.93;;;;;;;17.53;100.00;100445.28;1396769;87;21220;-80
2023/06/25 01:26:07;;;;;;;8.87;5.53;;;;;;;17.49;100.00;100451.20;1405557;87;21175;-80
2023/06/25 01:28:34;;;;;;;14.03;6.50;;;;;;;17.47;100.00;100450.07;1379998;89;21220;-80
2023/06/25 01:31:03;;;;;;;7.03;6.23;;;;;;;17.41;100.00;100450.02;1397463;88;22257;-80
2023/06/25 01:33:29;;;;;;;7.93;5.03;;;;;;;17.43;100.00;100461.33;1408986;88;21294;-80
2023/06/25 01:35:55;;;;;;;7.93;5.77;;;;;;;17.43;100.00;100464.01;1398788;87;21322;-80
2023/06/25 01:38:21;;;;;;;11.03;5.93;;;;;;;17.40;100.00;100459.05;1399109;88;21250;-79
2023/06/25 01:40:47;;;;;;;7.87;6.30;;;;;;;17.40;100.00;100459.05;1405281;88;22324;-80
2023/06/25 01:43:14;;;;;;;5.60;5.10;;;;;;;17.38;100.00;100448.55;1398810;88;21265;-80
2023/06/25 01:45:40;;;;;;;9.77;5.70;;;;;;;17.38;100.00;100448.55;1398311;88;21839;-80
2023/06/25 01:48:07;;;;;;;11.33;5.73;;;;;;;17.40;100.00;100449.16;1404383;87;21227;-80
2023/06/25 01:50:33;;;;;;;6.80;6.10;;;;;;;17.39;100.00;100444.84;1415764;88;21377;-80
2023/06/25 01:52:59;;;;;;;6.00;5.33;;;;;;;17.41;100.00;100441.48;1422463;86;21295;-80
2023/06/25 01:55:26;;;;;;;6.60;5.33;;;;;;;17.40;100.00;100437.64;1422562;86;22331;-80
2023/06/25 01:57:52;;;;;;;12.77;6.00;;;;;;;17.37;100.00;100434.83;1422694;86;21214;-81
2023/06/25 02:00:20;;;;;;;10.57;6.17;;;;;;;17.33;100.00;100428.23;1416025;86;21472;-80
2023/06/25 02:02:46;;;;;;;9.83;6.27;;;;;;;17.34;100.00;100424.52;1536038;87;22336;-81
2023/06/25 02:05:12;;;;;;;11.00;6.73;;;;;;;17.34;100.00;100424.52;1412780;88;21252;-81
2023/06/25 02:07:38;;;;;;;14.00;6.47;;;;;;;17.32;100.00;100423.87;1402108;85;21275;-80
2023/06/25 02:10:05;;;;;;;10.07;6.77;;;;;;;17.31;100.00;100424.91;1583917;87;21176;-80
2023/06/25 02:12:32;;;;;;;8.50;6.33;;;;;;;17.29;100.00;100426.45;1416992;87;21278;-79
2023/06/25 02:14:58;;;;;;;12.37;6.30;;;;;;;17.30;100.00;100432.63;1383523;89;21249;-80
2023/06/25 02:17:24;;;;;;;10.87;6.37;;;;;;;17.28;100.00;100439.48;1371669;89;21219;-81
2023/06/25 02:19:50;;;;;;;7.83;6.07;;;;;;;17.29;100.00;100437.64;1402163;87;22078;-81
2023/06/25 02:22:16;;;;;;;8.60;6.57;;;;;;;17.30;100.00;100433.45;1405204;88;21212;-81
2023/06/25 02:24:42;;;;;;;8.57;6.80;;;;;;;17.31;100.00;100444.97;1411676;87;21356;-81
2023/06/25 02:27:08;;;;;;;9.90;7.10;;;;;;;17.32;100.00;100446.13;1396743;87;21312;-81
2023/06/25 02:29:35;;;;;;;7.40;6.60;;;;;;;17.30;100.00;100435.30;1395093;88;22098;-82
2023/06/25 02:32:01;;;;;;;7.67;6.60;;;;;;;17.31;100.00;100434.27;1388149;88;21267;-81
2023/06/25 02:34:27;;;;;;;10.93;7.63;;;;;;;17.30;100.00;100427.27;1398946;89;22206;-82
2023/06/25 02:36:53;;;;;;;8.40;6.70;;;;;;;17.29;100.00;100428.27;1535082;89;21256;-81
2023/06/25 02:39:20;;;;;;;9.80;7.00;;;;;;;17.23;100.00;100435.21;1378725;89;21267;-81
2023/06/25 02:41:46;;;;;;;11.30;6.33;;;;;;;17.23;100.00;100427.70;1422585;86;22116;-81
2023/06/25 02:44:12;;;;;;;8.00;6.20;;;;;;;17.23;100.00;100426.37;1403395;88;21435;-81
2023/06/25 02:46:38;;;;;;;11.40;7.77;;;;;;;17.25;100.00;100424.34;1422442;86;21302;-82
2023/06/25 02:49:04;;;;;;;13.57;6.77;;;;;;;17.24;100.00;100434.73;1407987;86;21256;-82
2023/06/25 02:51:31;;;;;;;9.83;7.03;;;;;;;17.26;100.00;100438.02;1398600;88;22113;-81
2023/06/25 02:53:57;;;;;;;15.00;6.90;;;;;;;17.24;100.00;100435.55;1398575;88;21279;-80
2023/06/25 02:56:23;;;;;;;12.07;7.83;;;;;;;17.25;100.00;100430.51;1416922;87;21272;-80
2023/06/25 02:58:49;;;;;;;12.43;6.37;;;;;;;17.22;100.00;100436.24;1380538;89;21460;-79
2023/06/25 03:01:15;;;;;;;7.07;6.27;;;;;;;17.16;100.00;100424.16;1383778;89;21228;-79
2023/06/25 03:03:41;;;;;;;11.30;7.13;;;;;;;17.10;100.00;100436.44;1429953;90;21299;-79
2023/06/25 03:06:08;;;;;;;13.23;7.43;;;;;;;17.04;100.00;100440.70;1385707;90;21265;-80
2023/06/25 03:08:34;;;;;;;10.67;7.03;;;;;;;17.03;100.00;100435.04;1396295;88;21265;-79
2023/06/25 03:11:00;;;;;;;7.10;5.90;;;;;;;17.01;100.00;100431.72;1391473;88;21406;-79
2023/06/25 03:13:26;;;;;;;9.80;7.43;;;;;;;16.97;100.00;100439.78;1391488;88;21250;-79
2023/06/25 03:15:52;;;;;;;9.07;6.73;;;;;;;16.95;100.00;100431.14;1374696;90;21235;-80
2023/06/25 03:18:18;;;;;;;14.00;7.60;;;;;;;16.92;100.00;100431.52;1345482;92;21257;-80
2023/06/25 03:20:45;;;;;;;8.07;6.50;;;;;;;16.91;100.00;100429.33;1350127;92;21221;-81
2023/06/25 03:23:11;;;;;;;7.40;6.27;;;;;;;16.90;100.00;100428.20;1382925;88;21317;-80
2023/06/25 03:25:37;;;;;;;8.57;6.40;;;;;;;16.89;100.00;100430.05;1370337;90;21473;-81
2023/06/25 03:28:03;;;;;;;16.10;7.20;;;;;;;16.89;100.00;100438.58;1535817;89;21265;-80
2023/06/25 03:30:30;;;;;;;7.60;6.77;;;;;;;16.84;100.00;100436.46;1389940;88;21198;-80
2023/06/25 03:32:56;;;;;;;12.83;6.33;;;;;;;16.83;100.00;100441.98;1376066;88;22203;-81
2023/06/25 03:35:22;;;;;;;11.73;5.60;;;;;;;16.83;100.00;100437.97;1377535;90;21368;-80
2023/06/25 03:37:48;;;;;;;9.93;6.40;;;;;;;16.84;100.00;100436.98;1519694;90;21148;-80
2023/06/25 03:40:15;;;;;;;19.57;7.83;;;;;;;16.84;100.00;100438.31;1371365;90;21362;-81
2023/06/25 03:42:41;;;;;;;10.77;6.27;;;;;;;16.81;100.00;100428.83;1378090;90;21288;-81
2023/06/25 03:45:08;;;;;;;7.30;6.60;;;;;;;16.82;100.00;100434.99;1373306;90;22078;-80
2023/06/25 03:47:34;;;;;;;10.97;6.07;;;;;;;16.80;100.00;100426.33;1372568;90;22094;-80
2023/06/25 03:50:01;;;;;;;7.43;6.33;;;;;;;16.81;100.00;100428.00;1406872;88;21282;-81
2023/06/25 03:52:27;;;;;;;9.17;5.33;;;;;;;16.82;100.00;100433.66;1400398;88;21367;-83
2023/06/25 03:54:53;;;;;;;7.80;5.80;;;;;;;16.79;100.00;100438.05;1400944;87;21250;-79
2023/06/25 03:57:22;;;;;;;6.90;5.50;;;;;;;16.77;100.00;100432.05;1400672;87;21250;-90
2023/06/25 03:59:47;;;;;;;9.97;6.37;;;;;;;16.73;100.00;100419.55;1559957;88;21363;-84
2023/06/25 04:02:13;;;;;;;7.83;5.97;;;;;;;16.75;100.00;100418.03;1421894;87;21515;-84
2023/06/25 04:04:39;;;;;;;12.13;6.40;;;;;;;16.76;100.00;100420.53;1418661;87;21226;-85
2023/06/25 04:07:06;;;;;;;7.57;5.80;;;;;;;16.72;100.00;100417.91;1401329;87;21272;-83
2023/06/25 04:09:32;;;;;;;8.03;5.73;;;;;;;16.67;100.00;100419.78;1406622;87;21412;-86
2023/06/25 04:11:58;;;;;;;6.87;5.87;;;;;;;16.73;100.00;100424.06;1561478;87;21281;-85
2023/06/25 04:14:24;;;;;;;8.93;5.80;;;;;;;16.74;100.00;100427.05;1400503;87;22137;-84
2023/06/25 04:16:51;;;;;;;9.33;4.97;;;;;;;16.76;100.00;100430.37;1551004;88;21408;-85
2023/06/25 04:19:17;;;;;;;8.93;5.87;;;;;;;16.78;100.00;100431.05;1401189;88;21330;-84
2023/06/25 04:21:43;;;;;;;9.20;5.40;;;;;;;16.78;100.00;100434.55;1400543;88;21242;-85
2023/06/25 04:24:09;;;;;;;8.53;5.37;;;;;;;16.83;100.00;100438.83;1406711;87;21375;-82
2023/06/25 04:26:35;;;;;;;11.53;5.83;;;;;;;16.84;100.00;100435.64;1400439;87;21242;-85
2023/06/25 04:29:02;;;;;;;8.83;6.83;;;;;;;16.87;100.00;100433.92;1400456;87;22096;-81
2023/06/25 04:31:29;;;;;;;10.77;5.93;;;;;;;16.87;100.00;100432.59;1393859;88;21330;-82
2023/06/25 04:33:55;;;;;;;7.83;5.63;;;;;;;16.94;100.00;100427.31;1400425;88;21169;-86
2023/06/25 04:36:21;;;;;;;7.63;6.27;;;;;;;16.96;100.00;100438.14;1406884;87;21323;-82
2023/06/25 04:38:47;;;;;;;6.07;4.47;;;;;;;17.03;100.00;100432.85;1401375;87;21386;-81
2023/06/25 04:41:14;;;;;;;6.87;5.63;;;;;;;17.04;100.00;100427.84;1400294;87;21235;-80
2023/06/25 04:43:40;;;;;;;7.57;5.07;;;;;;;17.06;100.00;100431.98;1406245;87;21441;-82
2023/06/25 04:46:06;;;;;;;9.07;4.83;;;;;;;17.02;100.00;100439.22;1400511;87;21228;-83
2023/06/25 04:48:32;;;;;;;9.20;5.20;;;;;;;17.00;100.00;100434.05;1382595;89;21190;-80
2023/06/25 04:50:59;;;;;;;7.63;5.80;;;;;;;17.01;100.00;100441.08;1399821;88;22249;-82
2023/06/25 04:53:25;;;;;;;8.03;4.87;;;;;;;17.04;100.00;100447.37;1393596;88;21242;-81
2023/06/25 04:55:51;;;;;;;5.87;4.87;;;;;;;17.00;100.00;100447.94;1410687;87;21212;-83
2023/06/25 04:58:18;;;;;;;8.23;4.73;;;;;;;16.99;100.00;100448.96;1400114;87;22204;-85
2023/06/25 05:00:44;;;;;;;7.37;4.73;;;;;;;17.02;100.00;100428.53;1400178;87;21379;-85
2023/06/25 05:03:10;;;;;;;8.90;5.70;;;;;;;17.00;100.00;100425.21;1395375;88;21256;-84
2023/06/25 05:05:37;;;;;;;6.23;4.80;;;;;;;16.98;100.00;100429.94;1404746;87;22196;-85
2023/06/25 05:08:04;;;;;;;5.30;4.53;;;;;;;16.98;100.00;100434.77;1548973;88;21345;-84
2023/06/25 05:10:30;;;;;;;7.13;5.20;;;;;;;16.93;100.00;100429.16;1405618;87;21242;-83
2023/06/25 05:12:57;;;;;;;7.33;5.83;;;;;;;16.88;100.00;100436.91;1393685;88;21425;-84
2023/06/25 05:15:24;;;;;;;5.80;5.20;;;;;;;16.83;100.00;100441.50;1401068;87;21363;-83
2023/06/25 05:17:50;;;;;;;9.47;5.87;;;;;;;16.79;100.00;100438.05;1398552;88;21264;-84
2023/06/25 05:20:16;;;;;;;8.87;4.83;;;;;;;16.70;100.00;100438.12;1410280;87;21398;-84
2023/06/25 05:22:43;;;;;;;6.77;5.70;;;;;;;16.69;100.00;100443.66;1410341;87;21346;-85
2023/06/25 05:25:09;;;;;;;5.83;5.10;;;;;;;16.69;100.00;100441.81;1406525;88;21474;-84
2023/06/25 05:27:35;;;;;;;12.43;5.47;;;;;;;16.66;100.00;100438.18;1400655;87;22165;-86
2023/06/25 05:30:02;;;;;;;7.03;5.83;;;;;;;16.67;100.00;100445.17;1400855;87;21227;-87
2023/06/25 05:32:29;;;;;;;5.87;4.47;;;;;;;16.70;100.00;100439.97;1399675;87;21368;-87
2023/06/25 05:34:55;;;;;;;6.13;4.93;;;;;;;16.71;100.00;100441.61;1400496;87;21233;-87
2023/06/25 05:37:22;;;;;;;6.23;4.97;;;;;;;16.75;100.00;100447.44;1400493;87;21420;-86
2023/06/25 05:39:48;;;;;;;9.77;5.27;;;;;;;16.80;100.00;100445.03;1401307;88;21235;-87
2023/06/25 05:42:14;;;;;;;6.93;5.03;;;;;;;16.78;100.00;100448.42;1400216;87;22274;-88
2023/06/25 05:44:41;;;;;;;14.93;5.53;;;;;;;16.74;100.00;100450.59;1400728;88;21381;-88
2023/06/25 05:47:07;;;;;;;7.53;5.27;;;;;;;16.78;100.00;100459.12;1400623;87;21375;-88
2023/06/25 05:49:33;;;;;;;7.97;5.37;;;;;;;16.79;100.00;100456.75;1400573;87;21397;-87
2023/06/25 05:52:00;;;;;;;9.50;4.70;;;;;;;16.87;100.00;100457.98;1403591;87;21331;-89
2023/06/25 05:54:26;;;;;;;9.00;5.33;;;;;;;16.91;100.00;100461.41;1397835;87;22114;-85
2023/06/25 05:56:52;;;;;;;6.93;4.60;;;;;;;16.94;100.00;100461.55;1400956;87;21220;-88
2023/06/25 05:59:19;;;;;;;11.27;5.37;;;;;;;16.96;100.00;100466.20;1405355;87;21245;-88
2023/06/25 06:01:46;;;;;;;8.93;4.33;;;;;;;17.03;100.00;100461.78;1561621;87;21177;-88
2023/06/25 06:04:12;;;;;;;7.67;4.90;;;;;;;17.08;100.00;100459.85;1399473;87;21294;-87
2023/06/25 06:06:39;;;;;;;6.80;5.00;;;;;;;17.16;100.00;100459.74;1412489;87;22233;-86
2023/06/25 06:09:05;;;;;;;6.47;4.53;;;;;;;17.20;100.00;100454.83;1561664;87;21228;-86
2023/06/25 06:11:32;;;;;;;6.17;5.13;;;;;;;17.30;100.00;100456.70;1400699;87;21323;-86
2023/06/25 06:13:58;;;;;;;6.23;4.43;;;;;;;17.33;100.00;100450.97;1406399;87;22093;-86
2023/06/25 06:16:24;;;;;;;8.27;5.50;;;;;;;17.36;100.00;100444.72;1553515;88;21982;-85
2023/06/25 06:18:51;;;;;;;5.70;5.07;;;;;;;17.41;100.00;100446.83;1400319;87;21441;-85
2023/06/25 06:21:17;;;;;;;6.47;5.17;;;;;;;17.46;100.00;100445.72;1399362;88;21257;-84
2023/06/25 06:23:44;;;;;;;6.58;4.17;;;;;;;17.48;100.00;100440.19;1492372;87;21256;-85
2023/06/25 06:26:10;;;;;;;11.07;5.50;;;;;;;17.49;100.00;100440.02;1400858;87;21256;-85
2023/06/25 06:28:36;;;;;;;7.87;4.92;;;;;;;17.54;100.00;100444.77;1406377;87;21243;-85
2023/06/25 06:31:03;;;;;;;8.55;5.17;;;;;;;17.57;100.00;100437.69;1553425;88;22130;-85
2023/06/25 06:33:31;;;;;;;8.20;5.00;;;;;;;17.63;100.00;100441.44;1400113;87;22242;-84
2023/06/25 06:35:57;;;;;;;7.35;6.10;;;;;;;17.70;100.00;100445.02;1424557;87;21205;-83
2023/06/25 06:38:24;;;;;;;6.33;5.03;;;;;;;17.80;100.00;100446.34;1553446;88;21205;-83
2023/06/25 06:40:50;;;;;;;9.20;5.65;;;;;;;17.90;100.00;100439.33;1400984;87;21324;-83
2023/06/25 06:43:16;;;;;;;19.32;5.22;;;;;;;17.98;100.00;100431.64;1406888;87;22300;-81
2023/06/25 06:45:43;;;;;;;6.47;5.40;;;;;;;18.11;100.00;100433.59;1553468;88;21198;-82
2023/06/25 06:48:09;;;;;;;6.15;4.80;;;;;;;18.20;100.00;100436.42;1400324;87;22056;-83
2023/06/25 06:50:35;;;;;;;12.33;5.25;;;;;;;18.43;100.00;100434.27;1406560;87;21279;-81
2023/06/25 06:53:01;;;;;;;6.42;5.03;;;;;;;18.63;100.00;100437.56;1561556;87;21176;-80
2023/06/25 06:55:27;;;;;;;7.47;4.28;;;;;;;18.84;100.00;100435.29;1400885;88;21464;-82
2023/06/25 06:57:54;;;;;;;6.33;5.03;;;;;;;19.11;100.00;100434.86;1407112;87;21289;-81
2023/06/25 07:00:20;;;;;;;6.03;4.75;;;;;;;19.38;100.00;100436.53;1561534;88;21139;-80
2023/06/25 07:02:46;;;;;;;9.78;4.10;;;;;;;19.67;100.00;100429.66;1394110;88;22187;-80
2023/06/25 07:05:12;;;;;;;7.00;4.85;;;;;;;19.78;100.00;100426.36;1406514;87;21234;-81
2023/06/25 07:07:41;;;;;;;5.30;4.12;;;;;;;19.91;100.00;100430.88;1431322;88;21457;-80
2023/06/25 07:10:08;;;;;;;5.28;4.28;;;;;;;20.06;100.00;100428.80;1403567;87;21227;-83
2023/06/25 07:12:35;;;;;;;7.33;3.37;;;;;;;20.12;100.00;100418.56;1562062;87;21280;-80
2023/06/25 07:15:01;;;;;;;6.17;4.08;;;;;;;20.19;100.00;100419.35;1400616;87;22086;-80
2023/06/25 07:17:27;;;;;;;9.28;4.25;;;;;;;20.20;97.90;100410.80;1394181;89;22274;-82
2023/06/25 07:19:53;;;;;;;8.80;4.47;;;;;;;20.20;97.90;100410.80;1400438;87;21323;-82
2023/06/25 07:22:19;;;;;;;9.33;3.80;;;;;;;20.12;95.94;100415.88;1406470;88;21270;-82
2023/06/25 07:24:46;;;;;;;6.05;3.67;;;;;;;20.08;97.21;100424.02;1421360;88;21353;-82
2023/06/25 07:27:12;;;;;;;4.15;3.35;;;;;;;19.94;94.64;100424.59;1406636;87;21523;-81
2023/06/25 07:29:38;;;;;;;5.60;4.00;;;;;;;20.25;96.62;100415.00;1393941;88;21272;-82
2023/06/25 07:32:05;;;;;;;5.87;4.17;;;;;;;20.25;96.62;100415.00;1406346;87;22219;-81
2023/06/25 07:34:32;;;;;;;10.98;3.77;;;;;;;20.33;93.83;100423.36;1399974;87;21183;-82
2023/06/25 07:36:58;;;;;;;6.70;4.03;;;;;;;20.42;93.98;100412.14;1406026;88;22264;-81
2023/06/25 07:39:29;;;;;;;5.37;3.65;;;;;;;20.60;91.86;100410.16;1561594;87;21366;-81
2023/06/25 07:41:57;;;;;;;3.95;3.40;;;;;;;20.84;93.65;100413.96;1561370;87;21338;-82
2023/06/25 07:44:32;;;;;;;8.43;3.45;;;;;;;20.95;92.82;100412.46;1398472;87;21278;-80
2023/06/25 07:46:58;;;;;;;7.78;4.47;;;;;;;20.91;89.04;100407.19;1393697;89;21317;-81
2023/06/25 07:49:24;;;;;;;5.42;4.00;;;;;;;21.07;92.22;100407.22;1399929;88;21419;-81
2023/06/25 07:51:51;;;;;;;3.92;3.50;;;;;;;21.33;92.96;100412.93;1400536;88;21316;-81
2023/06/25 07:54:18;;;;;;;5.85;2.80;;;;;;;21.56;92.66;100405.10;1406257;87;21390;-81
2023/06/25 07:56:44;;;;;;;7.10;2.95;;;;;;;21.83;90.08;100410.24;1399873;87;22159;-83
2023/06/25 07:59:14;;;;;;;7.10;2.72;;;;;;;21.76;86.36;100408.15;1406969;87;21264;-84
2023/06/25 08:01:40;;;;;;;5.78;3.27;;;;;;;21.67;85.00;100410.83;1399893;87;21401;-82
2023/06/25 08:04:07;;;;;;;4.08;3.05;;;;;;;21.86;88.70;100413.84;1406359;88;21250;-82
2023/06/25 08:06:33;;;;;;;4.10;3.50;;;;;;;21.99;87.63;100407.51;1529220;88;21301;-81
2023/06/25 08:09:00;;;;;;;5.67;3.80;;;;;;;21.88;84.50;100405.02;1561345;87;21183;-81
2023/06/25 08:11:26;;;;;;;7.67;3.62;;;;;;;21.66;84.34;100405.12;1399856;87;21345;-81
2023/06/25 08:13:52;;;;;;;3.40;3.10;;;;;;;21.52;85.35;100397.67;1394672;88;21331;-81
2023/06/25 08:16:18;;;;;;;7.50;3.62;;;;;;;21.48;86.76;100395.95;1400470;87;21429;-81
2023/06/25 08:18:45;;;;;;;6.50;3.67;;;;;;;21.55;86.99;100394.54;1400102;87;21390;-80
2023/06/25 08:21:12;;;;;;;4.62;3.30;;;;;;;21.77;89.57;100397.66;1406839;87;21278;-82
2023/06/25 08:23:38;;;;;;;5.15;3.22;;;;;;;21.98;85.45;100391.02;1399730;87;22409;-82
2023/06/25 08:26:04;;;;;;;4.03;2.95;;;;;;;22.08;81.14;100396.73;1410549;87;21204;-82
2023/06/25 08:28:30;;;;;;;4.50;3.72;;;;;;;22.13;82.54;100392.84;1400223;88;21242;-81
2023/06/25 08:30:56;;;;;;;5.95;3.25;;;;;;;22.17;82.01;100393.21;1400509;88;22071;-80
2023/06/25 08:33:22;;;;;;;5.25;3.30;;;;;;;22.32;81.55;100397.72;1407050;87;21379;-82
2023/06/25 08:35:49;;;;;;;3.95;2.98;;;;;;;22.50;78.58;100392.33;1410334;87;21401;-82
2023/06/25 08:38:17;;;;;;;4.58;3.40;;;;;;;22.63;80.49;100394.55;1393732;89;21330;-82
2023/06/25 08:40:48;;;;;;;6.28;4.20;;;;;;;22.92;81.55;100389.67;1404930;87;21426;-82
2023/06/25 08:43:14;;;;;;;5.53;3.45;;;;;;;23.01;79.06;100394.77;1537229;87;21242;-81
2023/06/25 08:45:43;;;;;;;10.80;4.80;;;;;;;22.83;78.75;100393.75;1401064;87;21457;-83
2023/06/25 08:48:13;;;;;;;5.00;3.20;;;;;;;22.79;79.58;100397.12;1403724;87;21265;-81
2023/06/25 08:50:42;;;;;;;5.58;3.37;;;;;;;22.86;78.96;100393.29;1399000;87;21368;-79
2023/06/25 08:53:09;;;;;;;4.67;2.63;;;;;;;23.02;79.15;100393.70;1403460;87;21286;-79
2023/06/25 08:55:38;;;;;;;4.55;2.70;;;;;;;23.09;79.77;100402.02;1399781;87;21406;-83
2023/06/25 08:58:04;;;;;;;6.97;3.10;;;;;;;23.02;74.54;100400.45;1407008;87;21257;-80
2023/06/25 09:00:30;;;;;;;3.30;3.00;;;;;;;23.20;78.10;100401.75;1547964;88;21367;-80
2023/06/25 09:02:57;;;;;;;2.87;2.50;;;;;;;23.41;78.33;100391.74;1400859;87;21264;-81
2023/06/25 09:05:26;;;;;;;3.20;2.67;;;;;;;23.59;75.38;100392.69;1393839;88;22297;-79
2023/06/25 09:07:53;;;;;;;5.62;2.87;;;;;;;23.68;76.48;100396.72;1403803;87;22121;-79
2023/06/25 09:10:20;;;;;;;3.87;2.72;;;;;;;23.66;76.54;100392.06;1405575;87;22188;-79
2023/06/25 09:12:53;;;;;;;3.25;2.85;;;;;;;23.69;75.96;100397.53;1399357;87;21309;-78
2023/06/25 09:15:23;;;;;;;3.87;2.60;;;;;;;23.78;76.32;100396.97;1406398;87;21219;-80
2023/06/25 09:18:02;;;;;;;6.45;3.02;;;;;;;23.84;75.35;100393.84;1398437;87;22373;-79
2023/06/25 09:24:34;;;;;;;4.22;2.50;;;;;;;23.89;73.85;100387.75;1455283;88;22241;-79
2023/06/25 09:27:01;;;;;;;3.50;2.80;;;;;;;23.94;73.67;100386.48;1406274;87;21285;-80
2023/06/25 09:29:33;;;;;;;4.10;2.98;;;;;;;23.93;72.22;100378.09;1399351;87;22123;-82
2023/06/25 09:32:10;;;;;;;6.00;2.72;;;;;;;23.96;73.23;100377.09;1397612;88;21301;-81
2023/06/25 09:34:39;;;;;;;3.83;2.30;;;;;;;24.01;73.11;100379.09;1561533;88;21339;-81
2023/06/25 09:37:06;;;;;;;4.00;3.10;;;;;;;24.11;71.37;100376.62;1397451;87;21330;-81
2023/06/25 09:39:32;;;;;;;4.45;2.90;;;;;;;24.24;75.00;100385.80;1405698;87;21279;-81
2023/06/25 09:42:00;;;;;;;9.35;3.02;;;;;;;24.35;73.77;100380.61;1561543;87;21191;-81
2023/06/25 09:44:32;;;;;;;4.97;3.22;;;;;;;24.52;75.42;100383.70;1391771;88;21434;-80
2023/06/25 09:47:06;;;;;;;8.18;3.20;;;;;;;24.41;70.01;100379.65;1553388;87;21352;-80
2023/06/25 09:49:33;;;;;;;3.75;3.10;;;;;;;24.46;72.75;100377.90;1396502;89;21396;-86
2023/06/25 09:52:15;;;;;;;7.65;2.87;;;;;;;24.52;71.93;100375.58;1400135;87;21397;-85
2023/06/25 09:54:42;;;;;;;2.70;2.50;;;;;;;24.52;70.81;100363.41;1555902;88;21268;-87
2023/06/25 09:57:12;;;;;;;4.00;2.55;;;;;;;24.41;69.76;100364.23;1399748;87;21250;-84
2023/06/25 09:59:38;;;;;;;3.02;2.30;;;;;;;24.56;71.38;100360.22;1390235;88;21225;-84
2023/06/25 10:02:07;;;;;;;3.55;2.58;;;;;;;24.43;70.93;100357.28;1450341;87;21272;-87
2023/06/25 10:04:35;;;;;;;4.05;2.95;;;;;;;24.59;71.50;100347.02;1391072;88;21404;-83
2023/06/25 10:07:03;;;;;;;4.22;2.20;;;;;;;24.72;72.50;100349.44;1407977;87;21249;-85
2023/06/25 10:09:30;;;;;;;6.97;2.72;;;;;;;24.68;68.95;100349.62;1567199;87;21494;-86
2023/06/25 10:11:57;;;;;;;4.40;2.85;;;;;;;24.58;68.77;100350.80;1400313;87;21301;-83
2023/06/25 10:14:25;;;;;;;6.67;3.15;;;;;;;24.56;70.36;100352.09;1399220;88;22352;-88
2023/06/25 10:16:56;;;;;;;7.78;2.90;;;;;;;24.43;67.84;100347.81;1399380;87;22234;-87
2023/06/25 10:19:25;;;;;;;6.45;3.25;;;;;;;24.46;69.21;100352.73;1396552;87;21249;-84
2023/06/25 10:22:10;;;;;;;10.63;3.33;;;;;;;24.63;70.92;100341.43;1398043;87;21264;-85
2023/06/25 10:24:51;;;;;;;4.37;2.80;;;;;;;24.64;72.25;100341.71;1450279;87;21256;-86
2023/06/25 10:27:29;;;;;;;6.08;2.62;;;;;;;24.61;68.49;100340.03;1397854;87;21501;-84
2023/06/25 10:29:57;;;;;;;4.35;3.55;;;;;;;24.74;69.85;100333.79;1561666;87;21198;-85
2023/06/25 10:32:28;;;;;;;6.92;2.95;;;;;;;24.86;70.18;100330.17;1398581;87;21378;-86
2023/06/25 10:35:05;;;;;;;3.00;2.55;;;;;;;24.90;67.84;100332.69;1555755;87;21219;-86
2023/06/25 10:37:33;;;;;;;7.03;3.12;;;;;;;24.99;68.40;100332.57;1399643;87;21386;-85
2023/06/25 10:40:09;;;;;;;8.58;3.20;;;;;;;25.02;68.79;100329.91;1407807;87;21404;-84
2023/06/25 10:42:37;;;;;;;4.78;2.67;;;;;;;24.98;68.91;100330.94;1402301;87;21368;-83
2023/06/25 10:45:04;;;;;;;7.35;3.08;;;;;;;25.09;66.20;100325.14;1392878;88;21413;-85
2023/06/25 10:47:32;;;;;;;5.65;3.10;;;;;;;25.04;66.94;100329.95;1399077;87;21308;-84
2023/06/25 10:49:58;;;;;;;4.92;2.77;;;;;;;25.13;68.52;100329.83;1404943;87;22338;-85
2023/06/25 10:52:25;;;;;;;6.33;2.87;;;;;;;25.12;65.42;100326.03;1561688;87;21235;-84
2023/06/25 10:54:56;;;;;;;5.40;3.27;;;;;;;25.08;66.20;100323.52;1400121;88;21434;-85
2023/06/25 10:57:22;;;;;;;10.00;3.50;;;;;;;25.19;67.62;100314.52;1553448;88;21265;-88
2023/06/25 10:59:50;;;;;;;3.10;2.90;;;;;;;25.30;64.45;100315.50;1400515;87;21212;-85
2023/06/25 11:02:21;;;;;;;7.60;2.65;;;;;;;25.36;67.26;100314.51;1399661;87;22207;-85
2023/06/25 11:04:51;;;;;;;3.92;3.17;;;;;;;25.28;65.12;100314.92;1397525;87;21352;-84
2023/06/25 11:07:21;;;;;;;6.22;2.70;;;;;;;25.46;67.85;100309.77;1410095;87;21486;-86
2023/06/25 11:10:01;;;;;;;5.65;3.45;;;;;;;25.68;67.17;100308.45;1561619;87;21191;-85
2023/06/25 11:12:28;;;;;;;5.97;3.33;;;;;;;25.75;66.90;100305.02;1399927;87;21331;-85
2023/06/25 11:14:55;;;;;;;5.50;3.12;;;;;;;25.80;66.01;100301.02;1404658;87;21500;-85
2023/06/25 11:17:22;;;;;;;3.20;2.55;;;;;;;25.88;66.34;100297.91;1400134;87;21330;-85
2023/06/25 11:19:55;;;;;;;4.30;2.85;;;;;;;26.01;65.79;100300.25;1399888;87;21256;-84
2023/06/25 11:22:22;;;;;;;4.12;3.05;;;;;;;25.80;62.90;100294.24;1561569;87;21243;-87
2023/06/25 11:24:49;;;;;;;12.73;3.05;;;;;;;25.92;66.12;100299.03;1400107;87;21308;-85